sensor_id;sensor_type;location;lat;lon;timestamp;P1;durP1;ratioP1;P2;durP2;ratioP2
18973;SDS011;9621;48.690;9.466;2023-04-03T00:00:57;6.60;;;4.40;;
18973;SDS011;9621;48.690;9.466;2023-04-03T00:03:25;6.03;;;4.13;;
18973;SDS011;9621;48.690;9.466;2023-04-03T00:05:52;8.17;;;4.20;;
18973;SDS011;9621;48.690;9.466;2023-04-03T00:08:19;6.40;;;4.30;;
18973;SDS011;9621;48.690;9.466;2023-04-03T00:10:46;7.27;;;3.80;;
18973;SDS011;9621;48.690;9.466;2023-04-03T00:13:15;5.70;;;4.30;;
18973;SDS011;9621;48.690;9.466;2023-04-03T00:15:41;7.30;;;4.60;;
18973;SDS011;9621;48.690;9.466;2023-04-03T00:18:08;9.30;;;4.53;;
18973;SDS011;9621;48.690;9.466;2023-04-03T00:20:36;5.73;;;4.50;;
18973;SDS011;9621;48.690;9.466;2023-04-03T00:23:03;6.83;;;4.57;;
18973;SDS011;9621;48.690;9.466;2023-04-03T00:25:30;8.00;;;4.47;;
18973;SDS011;9621;48.690;9.466;2023-04-03T00:27:57;5.70;;;4.43;;
18973;SDS011;9621;48.690;9.466;2023-04-03T00:30:25;7.07;;;4.63;;
18973;SDS011;9621;48.690;9.466;2023-04-03T00:32:53;7.13;;;4.70;;
18973;SDS011;9621;48.690;9.466;2023-04-03T00:35:20;5.83;;;4.40;;
18973;SDS011;9621;48.690;9.466;2023-04-03T00:37:48;6.93;;;4.67;;
18973;SDS011;9621;48.690;9.466;2023-04-03T00:40:17;7.00;;;4.90;;
18973;SDS011;9621;48.690;9.466;2023-04-03T00:42:45;5.43;;;4.50;;
18973;SDS011;9621;48.690;9.466;2023-04-03T00:45:29;5.10;;;4.20;;
18973;SDS011;9621;48.690;9.466;2023-04-03T00:47:59;6.37;;;4.80;;
18973;SDS011;9621;48.690;9.466;2023-04-03T00:50:27;6.23;;;4.53;;
18973;SDS011;9621;48.690;9.466;2023-04-03T00:52:55;7.03;;;5.20;;
18973;SDS011;9621;48.690;9.466;2023-04-03T00:55:23;5.70;;;4.23;;
18973;SDS011;9621;48.690;9.466;2023-04-03T00:57:51;6.80;;;4.77;;
18973;SDS011;9621;48.690;9.466;2023-04-03T01:00:19;6.60;;;4.63;;
18973;SDS011;9621;48.690;9.466;2023-04-03T01:02:50;5.87;;;4.20;;
18973;SDS011;9621;48.690;9.466;2023-04-03T01:05:17;9.57;;;4.77;;
18973;SDS011;9621;48.690;9.466;2023-04-03T01:07:46;8.17;;;4.60;;
18973;SDS011;9621;48.690;9.466;2023-04-03T01:10:14;6.57;;;4.13;;
18973;SDS011;9621;48.690;9.466;2023-04-03T01:12:43;5.57;;;4.80;;
18973;SDS011;9621;48.690;9.466;2023-04-03T01:15:12;6.20;;;4.30;;
18973;SDS011;9621;48.690;9.466;2023-04-03T01:17:41;6.03;;;5.00;;
18973;SDS011;9621;48.690;9.466;2023-04-03T01:20:28;14.90;;;5.20;;
18973;SDS011;9621;48.690;9.466;2023-04-03T01:23:20;6.37;;;4.27;;
18973;SDS011;9621;48.690;9.466;2023-04-03T01:25:57;7.40;;;4.30;;
18973;SDS011;9621;48.690;9.466;2023-04-03T01:28:24;8.43;;;4.73;;
18973;SDS011;9621;48.690;9.466;2023-04-03T01:30:56;6.23;;;4.60;;
18973;SDS011;9621;48.690;9.466;2023-04-03T01:33:30;6.97;;;4.60;;
18973;SDS011;9621;48.690;9.466;2023-04-03T01:35:57;8.73;;;4.53;;
18973;SDS011;9621;48.690;9.466;2023-04-03T01:38:24;6.00;;;4.50;;
18973;SDS011;9621;48.690;9.466;2023-04-03T01:40:55;8.63;;;4.90;;
18973;SDS011;9621;48.690;9.466;2023-04-03T01:43:22;6.13;;;4.33;;
18973;SDS011;9621;48.690;9.466;2023-04-03T01:45:49;7.73;;;4.50;;
18973;SDS011;9621;48.690;9.466;2023-04-03T01:48:17;6.60;;;4.63;;
18973;SDS011;9621;48.690;9.466;2023-04-03T01:50:46;4.90;;;4.20;;
18973;SDS011;9621;48.690;9.466;2023-04-03T01:53:13;6.40;;;4.13;;
18973;SDS011;9621;48.690;9.466;2023-04-03T01:55:40;8.10;;;4.43;;
18973;SDS011;9621;48.690;9.466;2023-04-03T01:58:07;8.60;;;4.63;;
18973;SDS011;9621;48.690;9.466;2023-04-03T02:00:34;6.20;;;4.33;;
18973;SDS011;9621;48.690;9.466;2023-04-03T02:03:01;4.70;;;3.90;;
18973;SDS011;9621;48.690;9.466;2023-04-03T02:05:28;6.60;;;4.00;;
18973;SDS011;9621;48.690;9.466;2023-04-03T02:07:57;6.63;;;4.07;;
18973;SDS011;9621;48.690;9.466;2023-04-03T02:10:24;8.83;;;4.60;;
18973;SDS011;9621;48.690;9.466;2023-04-03T02:12:51;4.00;;;3.57;;
18973;SDS011;9621;48.690;9.466;2023-04-03T02:15:18;7.20;;;4.10;;
18973;SDS011;9621;48.690;9.466;2023-04-03T02:17:45;4.90;;;3.80;;
18973;SDS011;9621;48.690;9.466;2023-04-03T02:20:11;5.53;;;4.30;;
18973;SDS011;9621;48.690;9.466;2023-04-03T02:22:38;6.50;;;4.13;;
18973;SDS011;9621;48.690;9.466;2023-04-03T02:25:07;5.10;;;4.07;;
18973;SDS011;9621;48.690;9.466;2023-04-03T02:27:35;4.57;;;3.60;;
18973;SDS011;9621;48.690;9.466;2023-04-03T02:30:02;6.37;;;3.80;;
18973;SDS011;9621;48.690;9.466;2023-04-03T02:32:30;6.40;;;3.90;;
18973;SDS011;9621;48.690;9.466;2023-04-03T02:34:57;4.70;;;4.07;;
18973;SDS011;9621;48.690;9.466;2023-04-03T02:37:24;5.40;;;3.90;;
18973;SDS011;9621;48.690;9.466;2023-04-03T02:39:51;8.23;;;3.83;;
18973;SDS011;9621;48.690;9.466;2023-04-03T02:42:19;8.87;;;3.90;;
18973;SDS011;9621;48.690;9.466;2023-04-03T02:44:46;7.40;;;4.17;;
18973;SDS011;9621;48.690;9.466;2023-04-03T02:47:13;5.33;;;3.90;;
18973;SDS011;9621;48.690;9.466;2023-04-03T02:49:40;6.03;;;3.93;;
18973;SDS011;9621;48.690;9.466;2023-04-03T02:52:09;7.33;;;3.97;;
18973;SDS011;9621;48.690;9.466;2023-04-03T02:54:36;5.17;;;3.77;;
18973;SDS011;9621;48.690;9.466;2023-04-03T02:57:03;6.80;;;3.80;;
18973;SDS011;9621;48.690;9.466;2023-04-03T02:59:32;6.03;;;4.03;;
18973;SDS011;9621;48.690;9.466;2023-04-03T03:01:59;5.30;;;3.77;;
18973;SDS011;9621;48.690;9.466;2023-04-03T03:04:26;6.53;;;3.80;;
18973;SDS011;9621;48.690;9.466;2023-04-03T03:06:53;4.77;;;4.00;;
18973;SDS011;9621;48.690;9.466;2023-04-03T03:09:20;5.20;;;3.97;;
18973;SDS011;9621;48.690;9.466;2023-04-03T03:11:46;6.53;;;4.03;;
18973;SDS011;9621;48.690;9.466;2023-04-03T03:14:13;4.73;;;3.73;;
18973;SDS011;9621;48.690;9.466;2023-04-03T03:16:41;5.67;;;3.83;;
18973;SDS011;9621;48.690;9.466;2023-04-03T03:19:08;5.10;;;3.43;;
18973;SDS011;9621;48.690;9.466;2023-04-03T03:21:35;5.10;;;3.63;;
18973;SDS011;9621;48.690;9.466;2023-04-03T03:24:02;4.67;;;3.73;;
18973;SDS011;9621;48.690;9.466;2023-04-03T03:26:30;4.80;;;3.47;;
18973;SDS011;9621;48.690;9.466;2023-04-03T03:28:57;8.50;;;3.90;;
18973;SDS011;9621;48.690;9.466;2023-04-03T03:31:24;4.23;;;3.30;;
18973;SDS011;9621;48.690;9.466;2023-04-03T03:33:52;5.17;;;3.67;;
18973;SDS011;9621;48.690;9.466;2023-04-03T03:36:19;7.83;;;3.57;;
18973;SDS011;9621;48.690;9.466;2023-04-03T03:38:46;4.77;;;3.40;;
18973;SDS011;9621;48.690;9.466;2023-04-03T03:41:13;4.73;;;3.57;;
18973;SDS011;9621;48.690;9.466;2023-04-03T03:43:40;7.00;;;3.63;;
18973;SDS011;9621;48.690;9.466;2023-04-03T03:46:07;5.47;;;3.37;;
18973;SDS011;9621;48.690;9.466;2023-04-03T03:48:33;7.67;;;3.70;;
18973;SDS011;9621;48.690;9.466;2023-04-03T03:51:02;4.43;;;2.83;;
18973;SDS011;9621;48.690;9.466;2023-04-03T03:53:29;5.00;;;3.73;;
18973;SDS011;9621;48.690;9.466;2023-04-03T03:55:56;5.63;;;3.73;;
18973;SDS011;9621;48.690;9.466;2023-04-03T03:58:23;5.70;;;3.60;;
18973;SDS011;9621;48.690;9.466;2023-04-03T04:00:49;4.83;;;3.00;;
18973;SDS011;9621;48.690;9.466;2023-04-03T04:03:16;4.37;;;3.40;;
18973;SDS011;9621;48.690;9.466;2023-04-03T04:05:43;5.97;;;3.67;;
18973;SDS011;9621;48.690;9.466;2023-04-03T04:08:12;5.60;;;3.70;;
18973;SDS011;9621;48.690;9.466;2023-04-03T04:10:39;11.50;;;3.17;;
18973;SDS011;9621;48.690;9.466;2023-04-03T04:13:05;4.40;;;3.50;;
18973;SDS011;9621;48.690;9.466;2023-04-03T04:15:32;5.23;;;3.57;;
18973;SDS011;9621;48.690;9.466;2023-04-03T04:17:59;4.43;;;2.93;;
18973;SDS011;9621;48.690;9.466;2023-04-03T04:20:27;5.63;;;3.93;;
18973;SDS011;9621;48.690;9.466;2023-04-03T04:22:53;4.27;;;3.30;;
18973;SDS011;9621;48.690;9.466;2023-04-03T04:25:22;4.67;;;3.20;;
18973;SDS011;9621;48.690;9.466;2023-04-03T04:27:48;4.60;;;3.27;;
18973;SDS011;9621;48.690;9.466;2023-04-03T04:30:15;4.97;;;3.30;;
18973;SDS011;9621;48.690;9.466;2023-04-03T04:32:42;6.83;;;3.50;;
18973;SDS011;9621;48.690;9.466;2023-04-03T04:35:09;5.97;;;3.37;;
18973;SDS011;9621;48.690;9.466;2023-04-03T04:37:36;4.67;;;3.60;;
18973;SDS011;9621;48.690;9.466;2023-04-03T04:40:04;4.57;;;3.13;;
18973;SDS011;9621;48.690;9.466;2023-04-03T04:42:32;5.57;;;3.60;;
18973;SDS011;9621;48.690;9.466;2023-04-03T04:45:02;4.30;;;3.10;;
18973;SDS011;9621;48.690;9.466;2023-04-03T04:47:29;4.33;;;3.40;;
18973;SDS011;9621;48.690;9.466;2023-04-03T04:49:56;4.90;;;3.50;;
18973;SDS011;9621;48.690;9.466;2023-04-03T04:52:23;5.80;;;3.10;;
18973;SDS011;9621;48.690;9.466;2023-04-03T04:54:50;5.00;;;3.40;;
18973;SDS011;9621;48.690;9.466;2023-04-03T04:57:17;4.17;;;3.40;;
18973;SDS011;9621;48.690;9.466;2023-04-03T04:59:45;6.03;;;3.90;;
18973;SDS011;9621;48.690;9.466;2023-04-03T05:02:12;5.17;;;3.30;;
18973;SDS011;9621;48.690;9.466;2023-04-03T05:04:39;4.67;;;3.27;;
18973;SDS011;9621;48.690;9.466;2023-04-03T05:07:06;5.27;;;2.90;;
18973;SDS011;9621;48.690;9.466;2023-04-03T05:09:33;6.40;;;3.57;;
18973;SDS011;9621;48.690;9.466;2023-04-03T05:12:00;4.57;;;3.30;;
18973;SDS011;9621;48.690;9.466;2023-04-03T05:14:27;4.53;;;3.23;;
18973;SDS011;9621;48.690;9.466;2023-04-03T05:16:56;5.77;;;3.40;;
18973;SDS011;9621;48.690;9.466;2023-04-03T05:19:23;7.20;;;3.50;;
18973;SDS011;9621;48.690;9.466;2023-04-03T05:21:50;4.60;;;3.40;;
18973;SDS011;9621;48.690;9.466;2023-04-03T05:24:17;3.90;;;3.00;;
18973;SDS011;9621;48.690;9.466;2023-04-03T05:26:44;6.33;;;3.87;;
18973;SDS011;9621;48.690;9.466;2023-04-03T05:29:11;4.90;;;3.37;;
18973;SDS011;9621;48.690;9.466;2023-04-03T05:31:38;4.93;;;2.93;;
18973;SDS011;9621;48.690;9.466;2023-04-03T05:34:06;4.93;;;3.30;;
18973;SDS011;9621;48.690;9.466;2023-04-03T05:36:33;6.93;;;2.97;;
18973;SDS011;9621;48.690;9.466;2023-04-03T05:39:00;4.67;;;3.33;;
18973;SDS011;9621;48.690;9.466;2023-04-03T05:41:27;3.90;;;2.90;;
18973;SDS011;9621;48.690;9.466;2023-04-03T05:43:54;4.30;;;3.37;;
18973;SDS011;9621;48.690;9.466;2023-04-03T05:46:21;5.10;;;3.50;;
18973;SDS011;9621;48.690;9.466;2023-04-03T05:48:48;5.10;;;4.20;;
18973;SDS011;9621;48.690;9.466;2023-04-03T05:51:17;7.47;;;4.43;;
18973;SDS011;9621;48.690;9.466;2023-04-03T05:53:44;8.37;;;5.20;;
18973;SDS011;9621;48.690;9.466;2023-04-03T05:56:12;5.33;;;3.53;;
18973;SDS011;9621;48.690;9.466;2023-04-03T05:58:40;5.20;;;3.90;;
18973;SDS011;9621;48.690;9.466;2023-04-03T06:01:07;7.27;;;3.70;;
18973;SDS011;9621;48.690;9.466;2023-04-03T06:03:34;6.50;;;3.87;;
18973;SDS011;9621;48.690;9.466;2023-04-03T06:06:02;4.27;;;3.03;;
18973;SDS011;9621;48.690;9.466;2023-04-03T06:08:32;6.97;;;4.13;;
18973;SDS011;9621;48.690;9.466;2023-04-03T06:11:00;5.00;;;3.33;;
18973;SDS011;9621;48.690;9.466;2023-04-03T06:13:28;4.90;;;3.20;;
18973;SDS011;9621;48.690;9.466;2023-04-03T06:15:55;4.57;;;3.10;;
18973;SDS011;9621;48.690;9.466;2023-04-03T06:18:23;5.37;;;3.67;;
18973;SDS011;9621;48.690;9.466;2023-04-03T06:20:50;4.90;;;3.07;;
18973;SDS011;9621;48.690;9.466;2023-04-03T06:23:17;4.50;;;3.43;;
18973;SDS011;9621;48.690;9.466;2023-04-03T06:25:45;5.03;;;3.27;;
18973;SDS011;9621;48.690;9.466;2023-04-03T06:28:12;4.73;;;3.40;;
18973;SDS011;9621;48.690;9.466;2023-04-03T06:30:39;5.57;;;2.93;;
18973;SDS011;9621;48.690;9.466;2023-04-03T06:33:06;4.33;;;3.30;;
18973;SDS011;9621;48.690;9.466;2023-04-03T06:35:33;5.73;;;3.33;;
18973;SDS011;9621;48.690;9.466;2023-04-03T06:38:01;6.00;;;2.63;;
18973;SDS011;9621;48.690;9.466;2023-04-03T06:40:29;5.77;;;3.03;;
18973;SDS011;9621;48.690;9.466;2023-04-03T06:42:58;2.80;;;2.43;;
18973;SDS011;9621;48.690;9.466;2023-04-03T06:45:24;5.90;;;3.43;;
18973;SDS011;9621;48.690;9.466;2023-04-03T06:47:52;5.00;;;2.90;;
18973;SDS011;9621;48.690;9.466;2023-04-03T06:50:19;5.67;;;2.90;;
18973;SDS011;9621;48.690;9.466;2023-04-03T06:52:46;5.23;;;3.00;;
18973;SDS011;9621;48.690;9.466;2023-04-03T06:55:13;6.17;;;2.80;;
18973;SDS011;9621;48.690;9.466;2023-04-03T06:57:40;5.13;;;2.70;;
18973;SDS011;9621;48.690;9.466;2023-04-03T07:00:10;5.13;;;2.77;;
18973;SDS011;9621;48.690;9.466;2023-04-03T07:02:38;5.17;;;2.67;;
18973;SDS011;9621;48.690;9.466;2023-04-03T07:05:05;6.10;;;3.07;;
18973;SDS011;9621;48.690;9.466;2023-04-03T07:07:33;4.90;;;2.80;;
18973;SDS011;9621;48.690;9.466;2023-04-03T07:10:03;3.80;;;2.87;;
18973;SDS011;9621;48.690;9.466;2023-04-03T07:12:30;4.50;;;3.27;;
18973;SDS011;9621;48.690;9.466;2023-04-03T07:14:57;7.40;;;3.30;;
18973;SDS011;9621;48.690;9.466;2023-04-03T07:17:26;4.43;;;2.83;;
18973;SDS011;9621;48.690;9.466;2023-04-03T07:19:53;5.57;;;3.03;;
18973;SDS011;9621;48.690;9.466;2023-04-03T07:22:19;4.20;;;3.00;;
18973;SDS011;9621;48.690;9.466;2023-04-03T07:24:46;5.73;;;2.90;;
18973;SDS011;9621;48.690;9.466;2023-04-03T07:27:13;5.00;;;3.40;;
18973;SDS011;9621;48.690;9.466;2023-04-03T07:29:40;5.87;;;2.90;;
18973;SDS011;9621;48.690;9.466;2023-04-03T07:32:08;7.27;;;3.20;;
18973;SDS011;9621;48.690;9.466;2023-04-03T07:34:36;4.40;;;2.57;;
18973;SDS011;9621;48.690;9.466;2023-04-03T07:37:03;4.83;;;2.93;;
18973;SDS011;9621;48.690;9.466;2023-04-03T07:39:31;4.90;;;3.30;;
18973;SDS011;9621;48.690;9.466;2023-04-03T07:41:58;3.60;;;3.00;;
18973;SDS011;9621;48.690;9.466;2023-04-03T07:44:25;5.10;;;2.80;;
18973;SDS011;9621;48.690;9.466;2023-04-03T07:46:52;6.63;;;2.83;;
18973;SDS011;9621;48.690;9.466;2023-04-03T07:49:20;3.83;;;2.90;;
18973;SDS011;9621;48.690;9.466;2023-04-03T07:51:49;4.07;;;2.90;;
18973;SDS011;9621;48.690;9.466;2023-04-03T07:54:16;7.60;;;3.13;;
18973;SDS011;9621;48.690;9.466;2023-04-03T07:56:43;7.40;;;2.93;;
18973;SDS011;9621;48.690;9.466;2023-04-03T07:59:10;4.60;;;2.90;;
18973;SDS011;9621;48.690;9.466;2023-04-03T08:01:37;7.43;;;3.40;;
18973;SDS011;9621;48.690;9.466;2023-04-03T08:04:04;5.43;;;3.47;;
18973;SDS011;9621;48.690;9.466;2023-04-03T08:06:31;5.53;;;3.20;;
18973;SDS011;9621;48.690;9.466;2023-04-03T08:09:02;5.13;;;2.97;;
18973;SDS011;9621;48.690;9.466;2023-04-03T08:11:30;5.90;;;3.00;;
18973;SDS011;9621;48.690;9.466;2023-04-03T08:13:57;5.03;;;2.80;;
18973;SDS011;9621;48.690;9.466;2023-04-03T08:16:24;4.73;;;3.30;;
18973;SDS011;9621;48.690;9.466;2023-04-03T08:18:52;6.47;;;3.73;;
18973;SDS011;9621;48.690;9.466;2023-04-03T08:21:19;4.20;;;2.90;;
18973;SDS011;9621;48.690;9.466;2023-04-03T08:23:47;6.50;;;2.93;;
18973;SDS011;9621;48.690;9.466;2023-04-03T08:26:18;4.57;;;2.77;;
18973;SDS011;9621;48.690;9.466;2023-04-03T08:28:46;5.47;;;2.83;;
18973;SDS011;9621;48.690;9.466;2023-04-03T08:31:16;5.47;;;3.13;;
18973;SDS011;9621;48.690;9.466;2023-04-03T08:33:44;6.40;;;3.10;;
18973;SDS011;9621;48.690;9.466;2023-04-03T08:36:18;4.07;;;2.50;;
18973;SDS011;9621;48.690;9.466;2023-04-03T08:38:46;8.87;;;2.87;;
18973;SDS011;9621;48.690;9.466;2023-04-03T08:41:15;5.30;;;2.80;;
18973;SDS011;9621;48.690;9.466;2023-04-03T08:43:58;6.43;;;3.50;;
18973;SDS011;9621;48.690;9.466;2023-04-03T08:46:35;8.50;;;3.47;;
18973;SDS011;9621;48.690;9.466;2023-04-03T08:49:10;5.00;;;2.93;;
18973;SDS011;9621;48.690;9.466;2023-04-03T08:51:41;4.70;;;2.80;;
18973;SDS011;9621;48.690;9.466;2023-04-03T08:54:15;7.43;;;2.90;;
18973;SDS011;9621;48.690;9.466;2023-04-03T08:56:50;8.70;;;3.20;;
18973;SDS011;9621;48.690;9.466;2023-04-03T08:59:19;4.50;;;2.60;;
18973;SDS011;9621;48.690;9.466;2023-04-03T09:01:52;4.70;;;2.53;;
18973;SDS011;9621;48.690;9.466;2023-04-03T09:04:22;8.43;;;2.93;;
18973;SDS011;9621;48.690;9.466;2023-04-03T09:06:51;4.93;;;3.37;;
18973;SDS011;9621;48.690;9.466;2023-04-03T09:09:24;4.10;;;2.70;;
18973;SDS011;9621;48.690;9.466;2023-04-03T09:12:03;5.03;;;2.50;;
18973;SDS011;9621;48.690;9.466;2023-04-03T09:14:38;5.13;;;2.83;;
18973;SDS011;9621;48.690;9.466;2023-04-03T09:17:11;5.13;;;2.70;;
18973;SDS011;9621;48.690;9.466;2023-04-03T09:19:44;4.80;;;2.80;;
18973;SDS011;9621;48.690;9.466;2023-04-03T09:22:18;4.23;;;2.60;;
18973;SDS011;9621;48.690;9.466;2023-04-03T09:24:50;7.47;;;2.77;;
18973;SDS011;9621;48.690;9.466;2023-04-03T09:27:23;5.37;;;2.67;;
18973;SDS011;9621;48.690;9.466;2023-04-03T09:29:52;4.93;;;2.60;;
18973;SDS011;9621;48.690;9.466;2023-04-03T09:32:21;3.43;;;2.50;;
18973;SDS011;9621;48.690;9.466;2023-04-03T09:34:53;5.13;;;2.60;;
18973;SDS011;9621;48.690;9.466;2023-04-03T09:37:33;5.40;;;2.63;;
18973;SDS011;9621;48.690;9.466;2023-04-03T09:40:02;4.10;;;2.47;;
18973;SDS011;9621;48.690;9.466;2023-04-03T09:42:32;5.93;;;2.27;;
18973;SDS011;9621;48.690;9.466;2023-04-03T09:45:00;3.73;;;2.43;;
18973;SDS011;9621;48.690;9.466;2023-04-03T09:47:28;4.07;;;2.40;;
18973;SDS011;9621;48.690;9.466;2023-04-03T09:50:17;3.50;;;2.07;;
18973;SDS011;9621;48.690;9.466;2023-04-03T09:52:46;3.53;;;2.30;;
18973;SDS011;9621;48.690;9.466;2023-04-03T09:55:15;4.57;;;2.30;;
18973;SDS011;9621;48.690;9.466;2023-04-03T09:57:45;5.97;;;2.67;;
18973;SDS011;9621;48.690;9.466;2023-04-03T10:00:19;3.92;;;2.20;;
18973;SDS011;9621;48.690;9.466;2023-04-03T10:02:50;6.50;;;2.63;;
18973;SDS011;9621;48.690;9.466;2023-04-03T10:05:27;4.63;;;2.47;;
18973;SDS011;9621;48.690;9.466;2023-04-03T10:08:08;2.67;;;2.10;;
18973;SDS011;9621;48.690;9.466;2023-04-03T10:10:38;3.00;;;2.17;;
18973;SDS011;9621;48.690;9.466;2023-04-03T10:13:09;2.93;;;1.57;;
18973;SDS011;9621;48.690;9.466;2023-04-03T10:15:39;4.23;;;2.17;;
18973;SDS011;9621;48.690;9.466;2023-04-03T10:18:14;5.90;;;2.50;;
18973;SDS011;9621;48.690;9.466;2023-04-03T10:20:54;3.50;;;1.90;;
18973;SDS011;9621;48.690;9.466;2023-04-03T10:23:26;5.57;;;2.27;;
18973;SDS011;9621;48.690;9.466;2023-04-03T10:26:00;3.93;;;2.00;;
18973;SDS011;9621;48.690;9.466;2023-04-03T10:28:39;4.87;;;2.20;;
18973;SDS011;9621;48.690;9.466;2023-04-03T10:31:13;8.47;;;3.73;;
18973;SDS011;9621;48.690;9.466;2023-04-03T10:33:48;5.43;;;2.33;;
18973;SDS011;9621;48.690;9.466;2023-04-03T10:36:25;8.00;;;2.60;;
18973;SDS011;9621;48.690;9.466;2023-04-03T10:39:01;6.97;;;2.90;;
18973;SDS011;9621;48.690;9.466;2023-04-03T10:41:39;4.53;;;2.40;;
18973;SDS011;9621;48.690;9.466;2023-04-03T10:44:20;3.83;;;2.30;;
18973;SDS011;9621;48.690;9.466;2023-04-03T10:46:59;4.93;;;2.20;;
18973;SDS011;9621;48.690;9.466;2023-04-03T10:49:35;5.17;;;2.20;;
18973;SDS011;9621;48.690;9.466;2023-04-03T10:52:14;5.13;;;2.03;;
18973;SDS011;9621;48.690;9.466;2023-04-03T10:54:49;2.90;;;2.00;;
18973;SDS011;9621;48.690;9.466;2023-04-03T10:57:25;2.90;;;2.10;;
18973;SDS011;9621;48.690;9.466;2023-04-03T10:59:56;5.30;;;2.20;;
18973;SDS011;9621;48.690;9.466;2023-04-03T11:02:27;3.73;;;1.70;;
18973;SDS011;9621;48.690;9.466;2023-04-03T11:04:57;3.40;;;2.00;;
18973;SDS011;9621;48.690;9.466;2023-04-03T11:07:28;3.67;;;1.87;;
18973;SDS011;9621;48.690;9.466;2023-04-03T11:10:00;4.13;;;2.00;;
18973;SDS011;9621;48.690;9.466;2023-04-03T11:12:32;5.63;;;1.90;;
18973;SDS011;9621;48.690;9.466;2023-04-03T11:15:11;2.07;;;1.47;;
18973;SDS011;9621;48.690;9.466;2023-04-03T11:17:39;4.13;;;1.73;;
18973;SDS011;9621;48.690;9.466;2023-04-03T11:20:14;2.60;;;1.87;;
18973;SDS011;9621;48.690;9.466;2023-04-03T11:22:45;4.40;;;1.90;;
18973;SDS011;9621;48.690;9.466;2023-04-03T11:25:18;4.37;;;2.40;;
18973;SDS011;9621;48.690;9.466;2023-04-03T11:27:49;4.77;;;2.03;;
18973;SDS011;9621;48.690;9.466;2023-04-03T11:30:23;5.33;;;2.20;;
18973;SDS011;9621;48.690;9.466;2023-04-03T11:36:04;6.90;;;1.90;;
18973;SDS011;9621;48.690;9.466;2023-04-03T11:38:34;6.00;;;2.10;;
18973;SDS011;9621;48.690;9.466;2023-04-03T11:41:06;3.63;;;1.77;;
18973;SDS011;9621;48.690;9.466;2023-04-03T11:43:39;4.40;;;2.00;;
18973;SDS011;9621;48.690;9.466;2023-04-03T11:46:09;6.20;;;2.23;;
18973;SDS011;9621;48.690;9.466;2023-04-03T11:48:49;6.57;;;2.37;;
18973;SDS011;9621;48.690;9.466;2023-04-03T12:09:24;3.27;;;1.90;;
18973;SDS011;9621;48.690;9.466;2023-04-03T12:11:53;4.73;;;2.07;;
18973;SDS011;9621;48.690;9.466;2023-04-03T12:14:23;3.23;;;2.17;;
18973;SDS011;9621;48.690;9.466;2023-04-03T12:16:52;4.13;;;1.90;;
18973;SDS011;9621;48.690;9.466;2023-04-03T12:19:32;3.83;;;2.00;;
18973;SDS011;9621;48.690;9.466;2023-04-03T12:22:06;8.43;;;1.93;;
18973;SDS011;9621;48.690;9.466;2023-04-03T12:24:43;2.50;;;1.60;;
18973;SDS011;9621;48.690;9.466;2023-04-03T12:27:26;3.93;;;1.77;;
18973;SDS011;9621;48.690;9.466;2023-04-03T12:29:59;2.50;;;1.40;;
18973;SDS011;9621;48.690;9.466;2023-04-03T12:32:46;2.63;;;1.80;;
18973;SDS011;9621;48.690;9.466;2023-04-03T12:35:21;2.87;;;1.60;;
18973;SDS011;9621;48.690;9.466;2023-04-03T12:41:02;3.20;;;1.80;;
18973;SDS011;9621;48.690;9.466;2023-04-03T12:43:55;3.40;;;1.60;;
18973;SDS011;9621;48.690;9.466;2023-04-03T12:46:35;4.13;;;2.10;;
18973;SDS011;9621;48.690;9.466;2023-04-03T12:49:05;2.93;;;1.80;;
18973;SDS011;9621;48.690;9.466;2023-04-03T12:51:44;3.67;;;1.80;;
18973;SDS011;9621;48.690;9.466;2023-04-03T12:54:14;2.90;;;1.70;;
18973;SDS011;9621;48.690;9.466;2023-04-03T12:56:45;5.10;;;2.00;;
18973;SDS011;9621;48.690;9.466;2023-04-03T12:59:13;2.90;;;1.83;;
18973;SDS011;9621;48.690;9.466;2023-04-03T13:01:42;2.13;;;1.57;;
18973;SDS011;9621;48.690;9.466;2023-04-03T13:04:10;3.87;;;1.93;;
18973;SDS011;9621;48.690;9.466;2023-04-03T13:06:38;7.03;;;1.90;;
18973;SDS011;9621;48.690;9.466;2023-04-03T13:09:14;2.47;;;2.00;;
18973;SDS011;9621;48.690;9.466;2023-04-03T13:11:49;5.80;;;1.83;;
18973;SDS011;9621;48.690;9.466;2023-04-03T13:14:20;4.50;;;2.00;;
18973;SDS011;9621;48.690;9.466;2023-04-03T13:16:54;3.67;;;2.20;;
18973;SDS011;9621;48.690;9.466;2023-04-03T13:19:22;2.57;;;1.77;;
18973;SDS011;9621;48.690;9.466;2023-04-03T13:21:50;4.07;;;2.20;;
18973;SDS011;9621;48.690;9.466;2023-04-03T13:24:25;6.10;;;1.90;;
18973;SDS011;9621;48.690;9.466;2023-04-03T13:26:54;4.50;;;2.20;;
18973;SDS011;9621;48.690;9.466;2023-04-03T13:29:23;5.23;;;2.97;;
18973;SDS011;9621;48.690;9.466;2023-04-03T13:31:55;5.20;;;2.70;;
18973;SDS011;9621;48.690;9.466;2023-04-03T13:34:23;3.63;;;2.10;;
18973;SDS011;9621;48.690;9.466;2023-04-03T13:36:56;4.67;;;2.20;;
18973;SDS011;9621;48.690;9.466;2023-04-03T13:39:25;3.13;;;2.00;;
18973;SDS011;9621;48.690;9.466;2023-04-03T13:41:55;3.53;;;1.90;;
18973;SDS011;9621;48.690;9.466;2023-04-03T13:44:29;2.73;;;1.70;;
18973;SDS011;9621;48.690;9.466;2023-04-03T13:46:59;2.43;;;1.53;;
18973;SDS011;9621;48.690;9.466;2023-04-03T13:49:30;3.30;;;1.75;;
18973;SDS011;9621;48.690;9.466;2023-04-03T13:51:59;2.75;;;1.58;;
18973;SDS011;9621;48.690;9.466;2023-04-03T13:54:29;3.08;;;1.92;;
18973;SDS011;9621;48.690;9.466;2023-04-03T13:57:00;2.78;;;1.70;;
18973;SDS011;9621;48.690;9.466;2023-04-03T13:59:29;4.30;;;2.08;;
18973;SDS011;9621;48.690;9.466;2023-04-03T14:02:09;3.70;;;2.13;;
18973;SDS011;9621;48.690;9.466;2023-04-03T14:04:47;3.23;;;2.10;;
18973;SDS011;9621;48.690;9.466;2023-04-03T14:07:18;4.10;;;2.27;;
18973;SDS011;9621;48.690;9.466;2023-04-03T14:09:46;3.80;;;1.77;;
18973;SDS011;9621;48.690;9.466;2023-04-03T14:12:15;4.27;;;1.93;;
18973;SDS011;9621;48.690;9.466;2023-04-03T14:14:44;4.67;;;1.73;;
18973;SDS011;9621;48.690;9.466;2023-04-03T14:17:14;7.83;;;2.30;;
18973;SDS011;9621;48.690;9.466;2023-04-03T14:19:42;3.53;;;1.93;;
18973;SDS011;9621;48.690;9.466;2023-04-03T14:22:12;3.27;;;1.70;;
18973;SDS011;9621;48.690;9.466;2023-04-03T14:24:42;3.38;;;1.80;;
18973;SDS011;9621;48.690;9.466;2023-04-03T14:27:11;2.88;;;1.90;;
18973;SDS011;9621;48.690;9.466;2023-04-03T14:29:43;2.57;;;1.77;;
18973;SDS011;9621;48.690;9.466;2023-04-03T14:32:11;3.73;;;2.10;;
18973;SDS011;9621;48.690;9.466;2023-04-03T14:34:40;5.78;;;2.85;;
18973;SDS011;9621;48.690;9.466;2023-04-03T14:37:09;6.27;;;3.00;;
18973;SDS011;9621;48.690;9.466;2023-04-03T14:39:38;6.73;;;3.80;;
18973;SDS011;9621;48.690;9.466;2023-04-03T14:42:05;3.63;;;2.37;;
18973;SDS011;9621;48.690;9.466;2023-04-03T14:44:33;7.17;;;3.30;;
18973;SDS011;9621;48.690;9.466;2023-04-03T14:47:01;4.23;;;2.10;;
18973;SDS011;9621;48.690;9.466;2023-04-03T14:49:28;3.73;;;2.23;;
18973;SDS011;9621;48.690;9.466;2023-04-03T14:51:55;3.47;;;1.90;;
18973;SDS011;9621;48.690;9.466;2023-04-03T14:54:23;5.80;;;2.13;;
18973;SDS011;9621;48.690;9.466;2023-04-03T14:56:52;4.50;;;2.80;;
18973;SDS011;9621;48.690;9.466;2023-04-03T14:59:21;7.93;;;3.87;;
18973;SDS011;9621;48.690;9.466;2023-04-03T15:01:50;24.57;;;13.07;;
18973;SDS011;9621;48.690;9.466;2023-04-03T15:04:17;7.50;;;4.07;;
18973;SDS011;9621;48.690;9.466;2023-04-03T15:06:45;16.67;;;6.23;;
18973;SDS011;9621;48.690;9.466;2023-04-03T15:09:19;10.37;;;5.10;;
18973;SDS011;9621;48.690;9.466;2023-04-03T15:11:47;5.57;;;3.07;;
18973;SDS011;9621;48.690;9.466;2023-04-03T15:14:15;3.50;;;2.47;;
18973;SDS011;9621;48.690;9.466;2023-04-03T15:16:42;4.73;;;2.00;;
18973;SDS011;9621;48.690;9.466;2023-04-03T15:19:11;3.90;;;2.30;;
18973;SDS011;9621;48.690;9.466;2023-04-03T15:21:38;4.90;;;2.20;;
18973;SDS011;9621;48.690;9.466;2023-04-03T15:24:06;4.17;;;2.60;;
18973;SDS011;9621;48.690;9.466;2023-04-03T15:26:33;4.47;;;2.30;;
18973;SDS011;9621;48.690;9.466;2023-04-03T15:29:00;7.53;;;2.70;;
18973;SDS011;9621;48.690;9.466;2023-04-03T15:31:27;5.17;;;2.37;;
18973;SDS011;9621;48.690;9.466;2023-04-03T15:33:54;4.57;;;2.33;;
18973;SDS011;9621;48.690;9.466;2023-04-03T15:36:22;5.43;;;3.13;;
18973;SDS011;9621;48.690;9.466;2023-04-03T15:38:49;3.50;;;2.50;;